Terminal Aerodrome Forecast
Issued by NWS

Home | Current Version | Previous Version | Text Only | Print | Product List | Glossary On
Versions: 1 2 3 4 5 6 7 8 9 10 11 12 13 14 15 16 17 18 19 20 21 22 23 24 25 26 27 28 29 30 31 32 33 34 35 36 37 38
000
FTUS44 KOUN 271924 AAA
TAFLAW
TAF AMD
KLAW 271924Z 2719/2818 04015G20KT 5SM -RA BR OVC010
      TEMPO 2719/2722 1SM TSRA BR OVC008CB
     FM280000 03020G25KT 2SM RA BR OVC004
      TEMPO 2807/2811 1/2SM FG OVC002
     FM281200 01015G20KT 3SM BR OVC008 PROB30 2812/2816 -RA
     FM281700 02010G15KT P6SM OVC020=

USA.gov is the U.S. government's official web portal to all federal, state and local government web resources and services.